createdAt,value
2019-01-21T00:01:18.786Z,19.30
2019-01-21T00:03:51.875Z,20.37
2019-01-21T00:06:25.234Z,21.47
2019-01-21T00:08:58.359Z,21.20
2019-01-21T00:11:31.480Z,20.00
2019-01-21T00:14:04.639Z,22.60
2019-01-21T00:16:37.926Z,18.03
2019-01-21T00:19:10.989Z,20.03
2019-01-21T00:21:44.009Z,18.00
2019-01-21T00:24:16.893Z,18.00
2019-01-21T00:26:49.812Z,23.77
2019-01-21T00:29:22.866Z,20.63
2019-01-21T00:31:55.828Z,20.87
2019-01-21T00:34:28.750Z,20.77
2019-01-21T00:37:03.518Z,19.57
2019-01-21T00:39:37.211Z,20.77
2019-01-21T00:42:10.234Z,19.47
2019-01-21T00:44:46.965Z,20.40
2019-01-21T00:47:22.060Z,22.93
2019-01-21T00:50:01.082Z,23.20
2019-01-21T00:52:39.583Z,22.97
2019-01-21T00:55:17.002Z,25.50
2019-01-21T00:57:53.290Z,22.83
2019-01-21T01:00:29.269Z,22.40
2019-01-21T01:03:07.390Z,22.23
2019-01-21T01:05:49.307Z,19.90
2019-01-21T01:08:25.764Z,29.33
2019-01-21T01:11:03.189Z,24.73
2019-01-21T01:13:41.475Z,20.60
2019-01-21T01:16:20.028Z,22.33
2019-01-21T01:18:58.564Z,24.17
2019-01-21T01:21:36.387Z,22.13
2019-01-21T01:24:14.406Z,20.60
2019-01-21T01:26:51.737Z,17.77
2019-01-21T01:29:30.716Z,17.57
2019-01-21T01:32:09.574Z,18.57
2019-01-21T01:34:47.899Z,18.67
2019-01-21T01:37:28.795Z,17.23
2019-01-21T01:40:21.078Z,19.33
2019-01-21T01:43:14.268Z,18.27
2019-01-21T01:45:47.482Z,18.30
2019-01-21T01:48:20.417Z,18.87
2019-01-21T01:50:53.511Z,18.50
2019-01-21T01:53:26.782Z,17.70
2019-01-21T01:56:00.008Z,20.33
2019-01-21T01:58:32.931Z,18.90
2019-01-21T02:01:06.411Z,19.10
2019-01-21T02:03:39.294Z,19.07
2019-01-21T02:06:12.267Z,18.40
2019-01-21T02:08:45.331Z,18.53
2019-01-21T02:11:18.550Z,19.00
2019-01-21T02:13:51.309Z,19.30
2019-01-21T02:16:24.489Z,18.63
2019-01-21T02:18:58.714Z,19.63
2019-01-21T02:21:33.792Z,18.77
2019-01-21T02:24:10.158Z,17.60
2019-01-21T02:27:00.607Z,19.67
2019-01-21T02:30:36.605Z,19.30
2019-01-21T02:34:07.306Z,18.67
2019-01-21T02:37:46.391Z,19.60
2019-01-21T02:40:59.891Z,16.87
2019-01-21T02:44:13.149Z,17.13
2019-01-21T02:47:37.704Z,18.00
2019-01-21T02:51:23.622Z,18.73
2019-01-21T02:54:25.586Z,19.60
2019-01-21T02:58:14.061Z,19.43
2019-01-21T03:01:25.498Z,19.10
2019-01-21T03:04:39.053Z,21.27
2019-01-21T03:07:41.177Z,17.97
2019-01-21T03:10:33.095Z,17.00
2019-01-21T03:13:44.702Z,18.53
2019-01-21T03:17:23.122Z,17.77
2019-01-21T03:20:37.215Z,17.63
2019-01-21T03:24:03.307Z,16.10
2019-01-21T03:27:32.312Z,16.23
2019-01-21T03:31:03.125Z,16.97
2019-01-21T03:34:47.225Z,16.20
2019-01-21T03:38:41.105Z,16.10
2019-01-21T03:42:00.560Z,15.83
2019-01-21T03:45:57.568Z,13.50
2019-01-21T03:49:02.122Z,14.97
2019-01-21T03:52:24.378Z,14.63
2019-01-21T03:55:10.147Z,15.00
2019-01-21T03:58:33.746Z,15.60
2019-01-21T04:02:08.291Z,14.33
2019-01-21T04:05:47.052Z,16.57
2019-01-21T04:09:07.717Z,16.77
2019-01-21T04:12:10.376Z,18.83
2019-01-21T04:15:47.606Z,17.03
2019-01-21T04:19:30.699Z,22.20
2019-01-21T04:22:53.297Z,16.43
2019-01-21T04:26:04.055Z,17.23
2019-01-21T04:29:22.338Z,18.60
2019-01-21T04:32:09.940Z,22.47
2019-01-21T04:35:43.185Z,24.03
2019-01-21T04:39:30.956Z,21.27
2019-01-21T04:42:54.794Z,19.27
2019-01-21T04:45:53.224Z,18.93
2019-01-21T04:49:11.593Z,20.13
2019-01-21T04:52:38.056Z,17.27
2019-01-21T04:56:44.320Z,23.50
2019-01-21T05:00:22.346Z,21.53
2019-01-21T05:03:39.977Z,22.03
2019-01-21T05:07:34.074Z,20.73
2019-01-21T05:11:17.272Z,22.00
2019-01-21T05:14:39.239Z,19.03
2019-01-21T05:18:26.244Z,17.90
2019-01-21T05:22:04.920Z,18.40
2019-01-21T05:25:28.641Z,18.83
2019-01-21T05:29:05.594Z,20.70
2019-01-21T05:31:59.061Z,17.77
2019-01-21T05:35:38.253Z,21.07
2019-01-21T05:38:41.612Z,22.77
2019-01-21T05:41:59.060Z,19.47
2019-01-21T05:49:21.610Z,15.03
2019-01-21T05:53:00.308Z,15.87
2019-01-21T05:56:38.754Z,17.93
2019-01-21T06:00:07.855Z,16.67
2019-01-21T06:03:21.360Z,15.53
2019-01-21T06:06:35.177Z,14.40
2019-01-21T06:10:19.366Z,21.83
2019-01-21T06:13:59.260Z,24.93
2019-01-21T06:18:02.280Z,16.97
2019-01-21T06:21:34.992Z,15.43
2019-01-21T06:24:57.291Z,16.23
2019-01-21T06:28:32.478Z,17.10
2019-01-21T06:31:48.752Z,20.20
2019-01-21T06:35:22.361Z,23.00
2019-01-21T06:38:19.539Z,19.47
2019-01-21T06:42:13.827Z,19.87
2019-01-21T06:45:39.492Z,16.00
2019-01-21T06:49:26.254Z,15.67
2019-01-21T06:53:07.049Z,15.13
2019-01-21T06:56:10.048Z,15.73
2019-01-21T06:59:43.670Z,17.33
2019-01-21T07:03:07.176Z,16.53
2019-01-21T07:06:33.985Z,15.27
2019-01-21T07:09:51.076Z,14.10
2019-01-21T07:13:16.255Z,14.57
2019-01-21T07:16:48.571Z,18.53
2019-01-21T07:20:09.840Z,22.00
2019-01-21T07:23:42.451Z,21.00
2019-01-21T07:27:00.814Z,15.93
2019-01-21T07:30:30.721Z,13.97
2019-01-21T07:33:44.032Z,12.77
2019-01-21T07:36:57.296Z,13.57
2019-01-21T07:40:11.232Z,15.00
2019-01-21T07:43:21.335Z,15.80
2019-01-21T07:47:00.361Z,14.77
2019-01-21T07:50:29.954Z,14.97
2019-01-21T07:53:55.571Z,17.53
2019-01-21T07:57:37.791Z,25.80
2019-01-21T08:00:27.061Z,17.57
2019-01-21T08:03:57.022Z,12.43
2019-01-21T08:07:20.853Z,13.03
2019-01-21T08:10:49.592Z,13.93
2019-01-21T08:14:09.115Z,11.13
2019-01-21T08:17:54.849Z,13.53
2019-01-21T08:20:46.087Z,15.93
2019-01-21T08:24:13.276Z,13.63
2019-01-21T08:27:39.292Z,11.90
2019-01-21T08:30:49.680Z,14.30
2019-01-21T08:34:24.390Z,14.90
2019-01-21T08:37:58.723Z,14.70
2019-01-21T08:41:11.320Z,15.17
2019-01-21T08:44:53.382Z,17.73
2019-01-21T08:48:41.796Z,17.20
2019-01-21T08:52:04.562Z,17.53
2019-01-21T08:54:56.412Z,14.17
2019-01-21T08:58:16.376Z,13.80
2019-01-21T09:01:49.020Z,13.90
2019-01-21T09:05:00.938Z,10.03
2019-01-21T09:08:42.354Z,9.80
2019-01-21T09:12:35.433Z,9.37
2019-01-21T09:15:50.550Z,11.03
2019-01-21T09:19:14.789Z,9.77
2019-01-21T09:22:20.557Z,9.30
2019-01-21T09:26:16.975Z,10.33
2019-01-21T09:29:37.090Z,12.03
2019-01-21T09:32:50.038Z,12.73
2019-01-21T09:36:10.458Z,12.67
2019-01-21T09:39:47.888Z,11.70
2019-01-21T09:43:19.780Z,11.77
2019-01-21T09:46:46.509Z,12.20
2019-01-21T09:49:16.336Z,13.03
2019-01-21T09:52:16.953Z,13.03
2019-01-21T09:54:50.212Z,12.53
2019-01-21T09:57:28.068Z,13.00
2019-01-21T10:00:07.061Z,12.03
2019-01-21T10:02:50.525Z,12.57
2019-01-21T10:05:26.576Z,11.40
2019-01-21T10:08:53.232Z,11.40
2019-01-21T10:12:50.610Z,12.43
2019-01-21T10:15:58.240Z,11.20
2019-01-21T10:19:25.128Z,12.50
2019-01-21T10:23:04.080Z,12.53
2019-01-21T10:26:11.469Z,11.97
2019-01-21T10:29:42.249Z,12.20
2019-01-21T10:33:14.192Z,12.90
2019-01-21T10:37:02.177Z,13.03
2019-01-21T10:40:11.746Z,12.57
2019-01-21T10:43:55.017Z,10.50
2019-01-21T10:47:26.562Z,10.43
2019-01-21T10:51:03.658Z,12.60
2019-01-21T10:54:11.193Z,11.93
2019-01-21T10:57:25.099Z,11.67
2019-01-21T11:01:04.566Z,11.90
2019-01-21T11:04:37.683Z,13.17
2019-01-21T11:08:14.305Z,12.57
2019-01-21T11:12:02.219Z,11.60
2019-01-21T11:15:07.299Z,12.47
2019-01-21T11:18:28.497Z,12.67
2019-01-21T11:21:28.202Z,12.13
2019-01-21T11:24:52.760Z,13.40
2019-01-21T11:28:12.791Z,12.43
2019-01-21T11:31:45.241Z,13.43
2019-01-21T11:35:15.219Z,12.53
2019-01-21T11:38:22.370Z,14.00
2019-01-21T11:41:24.739Z,12.23
2019-01-21T11:44:42.330Z,11.17
2019-01-21T11:47:45.667Z,11.73
2019-01-21T11:51:20.943Z,12.60
2019-01-21T11:54:31.575Z,13.00
2019-01-21T11:58:04.426Z,13.07
2019-01-21T12:00:55.910Z,13.27
2019-01-21T12:04:02.091Z,13.53
2019-01-21T12:07:11.845Z,13.43
2019-01-21T12:10:47.861Z,12.87
2019-01-21T12:14:09.479Z,13.07
2019-01-21T12:17:52.260Z,13.03
2019-01-21T12:21:09.290Z,13.27
2019-01-21T12:24:33.259Z,13.50
2019-01-21T12:28:04.167Z,12.70
2019-01-21T12:31:45.257Z,11.87
2019-01-21T12:35:41.640Z,14.13
2019-01-21T12:39:06.380Z,12.03
2019-01-21T12:42:42.262Z,11.70
2019-01-21T12:46:23.992Z,11.87
2019-01-21T12:49:49.797Z,12.43
2019-01-21T12:53:29.642Z,11.53
2019-01-21T12:57:01.905Z,13.10
2019-01-21T13:00:45.277Z,13.07
2019-01-21T13:04:20.326Z,13.23
2019-01-21T13:07:27.114Z,12.27
2019-01-21T13:10:55.378Z,12.97
2019-01-21T13:14:21.677Z,13.40
2019-01-21T13:17:42.450Z,12.13
2019-01-21T13:21:08.428Z,12.70
2019-01-21T13:24:31.070Z,13.23
2019-01-21T13:27:55.627Z,13.23
2019-01-21T13:31:06.357Z,11.77
2019-01-21T13:34:19.500Z,13.20
2019-01-21T13:37:58.276Z,12.90
2019-01-21T13:41:25.385Z,11.80
2019-01-21T13:45:02.909Z,12.17
2019-01-21T13:48:47.536Z,13.27
2019-01-21T13:52:36.500Z,12.30
2019-01-21T13:55:43.489Z,18.43
2019-01-21T13:58:49.288Z,16.40
2019-01-21T14:01:58.210Z,14.90
2019-01-21T14:05:57.429Z,14.47
2019-01-21T14:09:56.906Z,13.47
2019-01-21T14:13:35.160Z,13.37
2019-01-21T14:17:14.659Z,12.97
2019-01-21T14:20:28.485Z,12.43
2019-01-21T14:24:01.996Z,12.57
2019-01-21T14:27:39.558Z,12.13
2019-01-21T14:31:15.706Z,13.13
2019-01-21T14:34:39.091Z,14.00
2019-01-21T14:38:00.431Z,14.63
2019-01-21T14:41:22.380Z,12.67
2019-01-21T14:45:09.162Z,13.63
2019-01-21T14:48:40.482Z,13.37
2019-01-21T14:52:09.355Z,12.50
2019-01-21T14:55:38.376Z,14.30
2019-01-21T14:59:07.228Z,14.23
2019-01-21T15:02:01.742Z,14.40
2019-01-21T15:05:28.306Z,14.13
2019-01-21T15:08:11.976Z,15.17
2019-01-21T15:11:42.884Z,17.93
2019-01-21T15:15:30.574Z,23.27
2019-01-21T15:19:00.518Z,17.17
2019-01-21T15:22:34.603Z,15.73
2019-01-21T15:25:47.591Z,14.93
2019-01-21T15:29:40.814Z,16.97
2019-01-21T15:33:27.135Z,14.30
2019-01-21T15:37:09.826Z,12.10
2019-01-21T15:40:44.675Z,15.57
2019-01-21T15:43:42.909Z,21.03
2019-01-21T15:47:19.592Z,17.97
2019-01-21T15:50:14.246Z,21.87
2019-01-21T15:53:33.452Z,12.97
2019-01-21T15:56:48.672Z,12.17
2019-01-21T16:00:08.389Z,14.17
2019-01-21T16:03:33.812Z,15.80
2019-01-21T16:07:21.142Z,17.80
2019-01-21T16:10:48.527Z,17.93
2019-01-21T16:13:48.281Z,13.23
2019-01-21T16:17:33.309Z,13.57
2019-01-21T16:20:39.256Z,13.93
2019-01-21T16:24:13.107Z,14.27
2019-01-21T16:27:16.165Z,38.67
2019-01-21T16:30:16.001Z,26.60
2019-01-21T16:33:56.773Z,22.80
2019-01-21T16:37:15.195Z,25.07
2019-01-21T16:40:52.747Z,20.80
2019-01-21T16:43:26.482Z,17.53
2019-01-21T16:45:59.862Z,16.57
2019-01-21T16:48:33.237Z,16.77
2019-01-21T16:51:06.800Z,19.10
2019-01-21T16:53:40.658Z,21.33
2019-01-21T16:56:14.341Z,20.00
2019-01-21T16:58:48.466Z,25.73
2019-01-21T17:01:26.681Z,19.33
2019-01-21T17:04:00.430Z,20.43
2019-01-21T17:06:34.542Z,22.40
2019-01-21T17:09:12.780Z,23.27
2019-01-21T17:11:46.802Z,22.47
2019-01-21T17:14:20.750Z,22.10
2019-01-21T17:16:54.845Z,23.33
2019-01-21T17:19:28.859Z,26.37
2019-01-21T17:22:02.688Z,22.57
2019-01-21T17:24:36.583Z,24.63
2019-01-21T17:27:12.987Z,25.77
2019-01-21T17:29:47.141Z,26.40
2019-01-21T17:32:21.588Z,27.07
2019-01-21T17:34:57.565Z,27.63
2019-01-21T17:37:31.539Z,25.43
2019-01-21T17:40:06.941Z,32.17
2019-01-21T17:42:40.754Z,35.37
2019-01-21T17:45:17.919Z,33.57
2019-01-21T17:47:52.072Z,33.30
2019-01-21T17:50:26.213Z,31.03
2019-01-21T17:52:59.931Z,42.17
2019-01-21T17:55:33.524Z,35.97
2019-01-21T17:58:07.463Z,35.00
2019-01-21T18:00:41.270Z,45.73
2019-01-21T18:03:15.017Z,64.80
2019-01-21T18:05:48.383Z,63.17
2019-01-21T18:08:22.007Z,52.33
2019-01-21T18:10:58.146Z,50.37
2019-01-21T18:13:31.838Z,34.70
2019-01-21T18:16:05.603Z,25.30
2019-01-21T18:18:39.667Z,28.50
2019-01-21T18:21:13.305Z,63.03
2019-01-21T18:23:46.966Z,36.17
2019-01-21T18:26:21.454Z,26.83
2019-01-21T18:28:55.893Z,28.20
2019-01-21T18:31:49.527Z,31.50
2019-01-21T18:34:23.501Z,30.33
2019-01-21T18:36:57.373Z,28.77
2019-01-21T18:39:31.112Z,29.93
2019-01-21T18:42:04.882Z,29.70
2019-01-21T18:44:38.822Z,30.87
2019-01-21T18:47:12.291Z,33.97
2019-01-21T18:49:45.753Z,33.17
2019-01-21T18:52:20.611Z,32.43
2019-01-21T18:54:54.254Z,31.10
2019-01-21T18:57:27.606Z,35.00
2019-01-21T19:00:01.393Z,32.70
2019-01-21T19:02:35.487Z,33.90
2019-01-21T19:05:10.086Z,29.30
2019-01-21T19:07:43.561Z,29.53
2019-01-21T19:10:19.271Z,31.10
2019-01-21T19:12:53.909Z,29.80
2019-01-21T19:15:34.884Z,30.40
2019-01-21T19:18:09.681Z,31.13
2019-01-21T19:20:43.379Z,32.33
2019-01-21T19:23:17.168Z,33.43
2019-01-21T19:25:51.079Z,31.83
2019-01-21T19:28:24.991Z,32.17
2019-01-21T19:30:58.681Z,33.10
2019-01-21T19:33:32.628Z,32.30
2019-01-21T19:36:06.842Z,32.60
2019-01-21T19:38:40.769Z,34.80
2019-01-21T19:41:14.794Z,36.20
2019-01-21T19:43:51.022Z,34.63
2019-01-21T19:46:28.036Z,36.93
2019-01-21T19:49:02.013Z,35.57
2019-01-21T19:51:35.694Z,35.93
2019-01-21T19:54:09.716Z,36.17
2019-01-21T19:56:46.236Z,36.77
2019-01-21T19:59:19.639Z,36.63
2019-01-21T20:01:53.419Z,38.47
2019-01-21T20:04:30.525Z,40.90
2019-01-21T20:07:06.513Z,39.07
2019-01-21T20:09:41.342Z,40.97
2019-01-21T20:12:16.439Z,38.73
2019-01-21T20:14:49.763Z,37.30
2019-01-21T20:17:23.469Z,39.93
2019-01-21T20:19:57.087Z,40.67
2019-01-21T20:22:30.442Z,45.43
2019-01-21T20:25:04.519Z,43.97
2019-01-21T20:27:38.217Z,44.37
2019-01-21T20:30:15.176Z,58.87
2019-01-21T20:32:49.559Z,75.77
2019-01-21T20:35:26.680Z,90.73
2019-01-21T20:38:00.103Z,77.93
2019-01-21T20:40:33.677Z,77.13
2019-01-21T20:43:07.257Z,49.37
2019-01-21T20:45:40.776Z,45.63
2019-01-21T20:48:14.375Z,43.97
2019-01-21T20:53:56.094Z,47.10
2019-01-21T20:56:29.796Z,48.60
2019-01-21T20:59:03.313Z,52.40
2019-01-21T21:01:36.698Z,53.17
2019-01-21T21:04:09.786Z,49.00
2019-01-21T21:06:43.065Z,47.33
2019-01-21T21:09:16.176Z,53.70
2019-01-21T21:11:52.073Z,50.73
2019-01-21T21:14:25.642Z,49.73
2019-01-21T21:16:58.614Z,48.47
2019-01-21T21:19:32.185Z,46.17
2019-01-21T21:22:05.313Z,43.97
2019-01-21T21:24:38.568Z,44.73
2019-01-21T21:27:16.072Z,50.13
2019-01-21T21:29:49.509Z,60.67
2019-01-21T21:32:22.455Z,56.00
2019-01-21T21:34:55.528Z,53.20
2019-01-21T21:37:28.548Z,49.10
2019-01-21T21:40:01.719Z,46.07
2019-01-21T21:42:34.525Z,42.47
2019-01-21T21:45:08.942Z,44.97
2019-01-21T21:47:42.099Z,43.70
2019-01-21T21:50:21.381Z,48.77
2019-01-21T21:52:54.386Z,47.87
2019-01-21T21:55:27.309Z,43.73
2019-01-21T21:58:00.328Z,44.90
2019-01-21T22:00:33.626Z,46.67
2019-01-21T22:03:06.383Z,41.17
2019-01-21T22:05:39.160Z,39.57
2019-01-21T22:08:12.147Z,42.60
2019-01-21T22:10:45.143Z,43.87
2019-01-21T22:13:18.035Z,76.60
2019-01-21T22:15:50.740Z,61.20
2019-01-21T22:18:23.671Z,50.83
2019-01-21T22:20:56.575Z,42.80
2019-01-21T22:23:30.961Z,44.53
2019-01-21T22:26:03.809Z,43.83
2019-01-21T22:28:36.671Z,38.80
2019-01-21T22:31:09.800Z,44.77
2019-01-21T22:33:42.819Z,42.60
2019-01-21T22:36:15.837Z,43.27
2019-01-21T22:38:48.628Z,41.20
2019-01-21T22:41:21.951Z,39.17
2019-01-21T22:43:54.709Z,43.40
2019-01-21T22:46:27.699Z,43.40
2019-01-21T22:49:00.858Z,44.73
2019-01-21T22:51:34.026Z,44.73
2019-01-21T22:54:09.388Z,40.03
2019-01-21T22:56:50.861Z,40.67
2019-01-21T22:59:30.693Z,41.27
2019-01-21T23:02:10.142Z,41.10
2019-01-21T23:04:47.782Z,40.03
2019-01-21T23:07:25.538Z,39.43
2019-01-21T23:10:02.047Z,38.70
2019-01-21T23:12:37.923Z,44.80
2019-01-21T23:15:15.691Z,38.17
2019-01-21T23:17:53.964Z,41.23
2019-01-21T23:20:32.190Z,45.80
2019-01-21T23:23:12.526Z,39.43
2019-01-21T23:25:46.011Z,41.13
2019-01-21T23:28:23.847Z,41.20
2019-01-21T23:30:59.219Z,44.27
2019-01-21T23:33:38.098Z,43.30
2019-01-21T23:36:19.393Z,39.40
2019-01-21T23:38:56.677Z,37.70
2019-01-21T23:41:55.389Z,43.03
2019-01-21T23:44:35.046Z,42.73
2019-01-21T23:47:15.325Z,45.70
2019-01-21T23:49:54.027Z,40.73
2019-01-21T23:52:32.092Z,44.77
2019-01-21T23:55:06.329Z,44.67
2019-01-21T23:58:05.156Z,41.17
